»·PEaware :: N21BS L52-L88

N21BS :: L52-L88

FLIGHT INFORMATION

Flight Status: Arrived
Operator: Privately registered:
United States
More flights under this callsign
Pilot: Brendon S. (26518)
Aircraft: CESSNA 172 SKYHAWK
(C172)
More flights by this aircraft type
Origin: L52 Oceano Co
United States
Destination: L88 New Cuyama
United States
More flights between these airports :: More routes between these airports
Route:
File this flight plan on PilotEdge
Remarks:
Altitude:
(Current/Filed)
7,500ft
Speed:
(Current/Filed)
110kts
Departed: 10-Oct-19 03:10 PM
Arrived: 10-Oct-19 03:48 PM
Distance/Time
Traveled:
47nm/0:38
Distance/Time
To Go:
Arrived

Flight Plot

Page will automatically refresh every two minutes.


Map Options




Map Legend


Flown Route
Filed Route
Departure Airport
Arrival Airport
Navaid (VOR, NDB)
Fix

Horizontal Profiles

Position Reports

Time Latitude Longitude Heading Altitude Ground
Speed
10-Oct-19 14:55 35.103552 -120.624284 214 15ft 0kts
10-Oct-19 14:56 35.103552 -120.624284 214 15ft 0kts
10-Oct-19 14:57 35.103552 -120.624284 214 15ft 0kts
10-Oct-19 14:58 35.103198 -120.625296 204 14ft 8kts
10-Oct-19 14:59 35.100738 -120.621711 123 17ft 16kts
10-Oct-19 15:00 35.099592 -120.619524 107 17ft 0kts
10-Oct-19 15:01 35.099586 -120.619490 98 17ft 1kts
10-Oct-19 15:02 35.101516 -120.622300 304 16ft 0kts
10-Oct-19 15:03 35.101516 -120.622299 304 16ft 0kts
10-Oct-19 15:04 35.101516 -120.622299 304 16ft 0kts
10-Oct-19 15:05 35.101516 -120.622299 304 16ft 0kts
10-Oct-19 15:06 35.101516 -120.622299 304 16ft 0kts
10-Oct-19 15:07 35.101516 -120.622299 304 16ft 0kts
10-Oct-19 15:08 35.100324 -120.620947 123 17ft 13kts
10-Oct-19 15:09 35.104427 -120.627225 299 142ft 68kts
10-Oct-19 15:10 35.103084 -120.644266 176 694ft 62kts
10-Oct-19 15:11 35.084812 -120.643445 165 1312ft 74kts
10-Oct-19 15:12 35.074186 -120.623254 82 1936ft 93kts
10-Oct-19 15:13 35.078797 -120.592790 81 2605ft 91kts
10-Oct-19 15:14 35.081499 -120.561740 81 3219ft 92kts
10-Oct-19 15:15 35.083628 -120.530165 81 3805ft 93kts
10-Oct-19 15:16 35.084331 -120.498806 81 4342ft 91kts
10-Oct-19 15:17 35.084560 -120.467544 80 4838ft 90kts
10-Oct-19 15:18 35.084664 -120.436887 80 5281ft 90kts
10-Oct-19 15:19 35.084595 -120.407217 80 5760ft 81kts
10-Oct-19 15:20 35.084947 -120.382225 61 6114ft 73kts
10-Oct-19 15:21 35.094141 -120.358443 79 6319ft 102kts
10-Oct-19 15:22 35.095216 -120.321023 81 6572ft 102kts
10-Oct-19 15:23 35.095350 -120.289820 80 7132ft 82kts
10-Oct-19 15:24 35.095290 -120.259821 81 7015ft 125kts
10-Oct-19 15:25 35.094472 -120.221480 92 7266ft 120kts
10-Oct-19 15:26 35.089658 -120.180101 92 7264ft 124kts
10-Oct-19 15:27 35.084070 -120.137903 102 7258ft 127kts
10-Oct-19 15:28 35.071246 -120.096862 106 7258ft 129kts
10-Oct-19 15:29 35.058295 -120.055681 106 7259ft 130kts
10-Oct-19 15:30 35.045262 -120.013368 106 7114ft 140kts
10-Oct-19 15:31 35.032493 -119.969907 106 6422ft 129kts
10-Oct-19 15:32 35.021146 -119.929342 106 5520ft 124kts
10-Oct-19 15:33 35.004331 -119.892971 131 4728ft 113kts
10-Oct-19 15:34 34.988645 -119.868885 129 4773ft 105kts
10-Oct-19 15:35 34.966036 -119.836888 130 4779ft 133kts
10-Oct-19 15:36 34.941308 -119.801570 130 4787ft 137kts
10-Oct-19 15:37 34.916319 -119.765690 129 4791ft 138kts
10-Oct-19 15:38 34.901885 -119.723176 102 4808ft 137kts
10-Oct-19 15:39 34.889926 -119.678926 106 4802ft 137kts
10-Oct-19 15:40 34.877497 -119.634815 106 4707ft 143kts
10-Oct-19 15:41 34.867570 -119.589804 75 3946ft 137kts
10-Oct-19 15:42 34.899795 -119.571087 325 2817ft 128kts
10-Oct-19 15:43 34.911475 -119.603285 293 2697ft 80kts
10-Oct-19 15:44 34.922848 -119.626466 297 2672ft 78kts
10-Oct-19 15:45 34.932841 -119.648739 284 2669ft 74kts
10-Oct-19 15:46 34.935957 -119.675822 294 2318ft 83kts
10-Oct-19 15:47 34.941354 -119.689008 296 2162ft 26kts
10-Oct-19 15:48 34.942386 -119.690920 178 2156ft 0kts
10-Oct-19 15:49 34.942386 -119.690920 178 2156ft 0kts
10-Oct-19 15:50 34.942386 -119.690920 178 2156ft 0kts
10-Oct-19 15:51 34.942386 -119.690920 178 2156ft 0kts
10-Oct-19 15:52 34.942386 -119.690920 178 2156ft 0kts
10-Oct-19 15:53 34.942386 -119.690920 178 2156ft 0kts
10-Oct-19 15:54 34.942386 -119.690920 178 2156ft 0kts
10-Oct-19 15:55 34.942386 -119.690920 178 2156ft 0kts
10-Oct-19 15:56 34.942386 -119.690920 178 2156ft 0kts
10-Oct-19 15:57 34.942386 -119.690920 178 2156ft 0kts
10-Oct-19 15:58 34.942386 -119.690920 178 2156ft 0kts
10-Oct-19 15:59 34.942386 -119.690920 178 2156ft 0kts
10-Oct-19 16:00 34.942386 -119.690920 178 2156ft 0kts
10-Oct-19 16:01 34.942386 -119.690920 178 2156ft 0kts

Navigation Log

Ident Type
Flight plan parsing failed, navigation log unavailable